createdAt,value
2022-10-31T00:01:19.409Z,101103.84
2022-10-31T00:04:21.338Z,101111.91
2022-10-31T00:07:22.891Z,101107.25
2022-10-31T00:10:24.588Z,101104.47
2022-10-31T00:13:26.575Z,101104.91
2022-10-31T00:16:29.595Z,101103.84
2022-10-31T00:19:31.428Z,101104.81
2022-10-31T00:22:33.334Z,101107.50
2022-10-31T00:25:37.524Z,101098.34
2022-10-31T00:28:39.491Z,101095.44
2022-10-31T00:31:41.390Z,101102.03
2022-10-31T00:34:43.353Z,101088.72
2022-10-31T00:37:48.341Z,101089.97
2022-10-31T00:40:49.959Z,101095.53
2022-10-31T00:43:51.932Z,101094.13
2022-10-31T00:46:53.695Z,101096.12
2022-10-31T00:49:55.432Z,101087.59
2022-10-31T00:52:58.055Z,101097.81
2022-10-31T00:55:59.661Z,101091.69
2022-10-31T00:59:01.469Z,101093.09
2022-10-31T01:02:03.441Z,101085.28
2022-10-31T01:05:06.033Z,101086.34
2022-10-31T01:08:08.007Z,101078.00
2022-10-31T01:11:20.516Z,101091.06
2022-10-31T01:14:22.283Z,101072.81
2022-10-31T01:17:23.842Z,101074.97
2022-10-31T01:20:25.580Z,101080.34
2022-10-31T01:23:28.155Z,101076.34
2022-10-31T01:26:32.811Z,101081.25
2022-10-31T01:29:34.721Z,101083.75
2022-10-31T01:32:36.273Z,101074.94
2022-10-31T01:35:37.999Z,101069.53
2022-10-31T01:38:39.990Z,101073.22
2022-10-31T01:41:48.411Z,101073.31
2022-10-31T01:45:02.003Z,101069.88
2022-10-31T01:48:03.976Z,101063.34
2022-10-31T01:51:06.976Z,101070.28
2022-10-31T01:54:13.438Z,101063.53
2022-10-31T01:57:16.901Z,101062.75
2022-10-31T02:00:21.280Z,101068.59
2022-10-31T02:03:24.044Z,101060.97
2022-10-31T02:06:37.170Z,101062.31
2022-10-31T02:09:40.936Z,101064.16
2022-10-31T02:12:43.174Z,101058.19
2022-10-31T02:15:47.281Z,101053.00
2022-10-31T02:18:49.280Z,101062.50
2022-10-31T02:22:10.644Z,101058.34
2022-10-31T02:25:43.095Z,101048.00
2022-10-31T02:29:00.003Z,101047.66
2022-10-31T02:32:18.988Z,101048.47
2022-10-31T02:35:59.318Z,101060.22
2022-10-31T02:39:22.667Z,101050.97
2022-10-31T02:42:43.750Z,101057.50
2022-10-31T02:45:53.554Z,101059.34
2022-10-31T02:49:01.450Z,101067.84
2022-10-31T02:52:03.306Z,101067.13
2022-10-31T02:55:31.089Z,101074.66
2022-10-31T02:58:38.790Z,101069.38
2022-10-31T03:01:58.839Z,101075.59
2022-10-31T03:05:15.171Z,101068.78
2022-10-31T03:08:26.105Z,101071.97
2022-10-31T03:11:37.941Z,101077.50
2022-10-31T03:14:52.714Z,101073.53
2022-10-31T03:18:08.748Z,101079.34
2022-10-31T03:21:26.774Z,101083.28
2022-10-31T03:24:31.853Z,101085.78
2022-10-31T03:27:36.625Z,101093.41
2022-10-31T03:30:42.479Z,101085.72
2022-10-31T03:33:47.074Z,101090.03
2022-10-31T03:36:52.402Z,101089.06
2022-10-31T03:39:56.255Z,101085.56
2022-10-31T03:43:03.749Z,101087.50
2022-10-31T03:46:06.813Z,101087.59
2022-10-31T03:49:08.719Z,101096.62
2022-10-31T03:52:31.416Z,101090.91
2022-10-31T03:55:37.113Z,101085.78
2022-10-31T03:58:47.787Z,101086.97
2022-10-31T04:01:53.243Z,101091.44
2022-10-31T04:04:55.377Z,101091.72
2022-10-31T04:08:03.986Z,101088.56
2022-10-31T04:11:07.903Z,101103.00
2022-10-31T04:14:11.001Z,101104.87
2022-10-31T04:17:16.415Z,101097.87
2022-10-31T04:20:18.943Z,101107.06
2022-10-31T04:23:24.645Z,101104.81
2022-10-31T04:26:26.540Z,101105.75
2022-10-31T04:29:28.205Z,101100.00
2022-10-31T04:32:29.941Z,101099.72
2022-10-31T04:35:31.750Z,101105.41
2022-10-31T04:38:33.385Z,101106.34
2022-10-31T04:41:35.221Z,101111.53
2022-10-31T04:44:37.063Z,101111.00
2022-10-31T04:47:38.842Z,101111.81
2022-10-31T04:50:40.592Z,101105.13
2022-10-31T04:53:42.246Z,101112.13
2022-10-31T04:56:43.958Z,101108.53
2022-10-31T04:59:45.754Z,101106.41
2022-10-31T05:02:55.337Z,101111.13
2022-10-31T05:05:57.132Z,101117.78
2022-10-31T05:08:58.920Z,101114.50
2022-10-31T05:12:00.467Z,101111.16
2022-10-31T05:15:02.222Z,101126.53
2022-10-31T05:18:04.538Z,101115.37
2022-10-31T05:21:06.299Z,101118.22
2022-10-31T05:24:08.327Z,101124.16
2022-10-31T05:27:09.891Z,101115.37
2022-10-31T05:30:14.275Z,101129.63
2022-10-31T05:33:15.852Z,101125.75
2022-10-31T05:36:17.501Z,101127.28
2022-10-31T05:39:19.395Z,101132.06
2022-10-31T05:42:21.286Z,101138.06
2022-10-31T05:45:23.957Z,101135.13
2022-10-31T05:48:25.566Z,101139.13
2022-10-31T05:51:27.635Z,101133.59
2022-10-31T05:54:29.301Z,101133.00
2022-10-31T05:57:33.327Z,101135.63
2022-10-31T06:00:36.305Z,101138.41
2022-10-31T06:03:38.134Z,101136.22
2022-10-31T06:06:39.874Z,101140.22
2022-10-31T06:09:42.218Z,101135.25
2022-10-31T06:12:43.911Z,101142.44
2022-10-31T06:15:46.260Z,101138.78
2022-10-31T06:18:48.655Z,101137.59
2022-10-31T06:21:50.394Z,101143.62
2022-10-31T06:24:54.810Z,101144.75
2022-10-31T06:27:58.437Z,101155.97
2022-10-31T06:30:59.969Z,101151.53
2022-10-31T06:34:01.808Z,101153.56
2022-10-31T06:37:03.517Z,101148.53
2022-10-31T06:40:06.150Z,101159.75
2022-10-31T06:43:07.946Z,101162.75
2022-10-31T06:46:09.669Z,101166.25
2022-10-31T06:49:11.523Z,101167.09
2022-10-31T06:52:13.088Z,101171.03
2022-10-31T06:55:14.999Z,101163.47
2022-10-31T06:58:16.782Z,101163.09
2022-10-31T07:01:18.635Z,101171.75
2022-10-31T07:04:20.643Z,101167.50
2022-10-31T07:07:22.740Z,101162.28
2022-10-31T07:10:26.782Z,101172.19
2022-10-31T07:13:28.389Z,101167.22
2022-10-31T07:16:30.118Z,101170.72
2022-10-31T07:19:31.927Z,101166.34
2022-10-31T07:22:35.959Z,101160.81
2022-10-31T07:25:38.821Z,101165.06
2022-10-31T07:28:40.750Z,101162.44
2022-10-31T07:31:42.671Z,101169.88
2022-10-31T07:34:47.367Z,101169.28
2022-10-31T07:37:50.128Z,101172.66
2022-10-31T07:40:55.976Z,101170.75
2022-10-31T07:43:57.765Z,101173.66
2022-10-31T07:46:59.556Z,101173.78
2022-10-31T07:50:01.187Z,101177.38
2022-10-31T07:53:11.160Z,101177.06
2022-10-31T07:56:12.944Z,101181.41
2022-10-31T07:59:14.853Z,101180.31
2022-10-31T08:02:16.706Z,101176.56
2022-10-31T08:05:18.669Z,101184.81
2022-10-31T08:08:20.734Z,101187.62
2022-10-31T08:11:22.540Z,101184.94
2022-10-31T08:14:27.178Z,101194.13
2022-10-31T08:17:29.134Z,101189.41
2022-10-31T08:20:31.159Z,101194.94
2022-10-31T08:23:32.987Z,101196.06
2022-10-31T08:26:34.765Z,101198.91
2022-10-31T08:29:36.614Z,101201.75
2022-10-31T08:32:38.480Z,101210.09
2022-10-31T08:35:40.667Z,101196.50
2022-10-31T08:38:42.416Z,101200.59
2022-10-31T08:41:45.342Z,101202.13
2022-10-31T08:44:47.080Z,101196.06
2022-10-31T08:47:48.822Z,101200.31
2022-10-31T08:50:50.634Z,101199.37
2022-10-31T08:53:52.421Z,101205.22
2022-10-31T08:56:57.290Z,101202.00
2022-10-31T08:59:59.209Z,101206.94
2022-10-31T09:03:06.595Z,101212.59
2022-10-31T09:06:10.204Z,101213.28
2022-10-31T09:09:12.199Z,101208.78
2022-10-31T09:12:13.766Z,101206.34
2022-10-31T09:15:15.509Z,101214.78
2022-10-31T09:18:22.846Z,101211.28
2022-10-31T09:21:24.662Z,101211.81
2022-10-31T09:24:26.402Z,101212.00
2022-10-31T09:27:28.323Z,101216.47
2022-10-31T09:30:32.591Z,101218.06
2022-10-31T09:33:34.267Z,101220.06
2022-10-31T09:36:37.401Z,101223.22
2022-10-31T09:39:39.181Z,101214.56
2022-10-31T09:43:26.567Z,101217.84
2022-10-31T09:46:40.843Z,101214.44
2022-10-31T09:50:00.816Z,101211.75
2022-10-31T09:53:14.880Z,101211.22
2022-10-31T09:56:20.841Z,101212.53
2022-10-31T09:59:31.924Z,101217.22
2022-10-31T10:02:58.387Z,101215.34
2022-10-31T10:06:07.958Z,101212.22
2022-10-31T10:09:11.453Z,101214.47
2022-10-31T10:12:38.545Z,101209.78
2022-10-31T10:15:55.817Z,101204.72
2022-10-31T10:19:12.161Z,101202.50
2022-10-31T10:22:28.755Z,101210.75
2022-10-31T10:25:43.312Z,101209.19
2022-10-31T10:28:55.819Z,101212.16
2022-10-31T10:32:02.588Z,101209.16
2022-10-31T10:35:16.116Z,101215.47
2022-10-31T10:38:31.194Z,101212.72
2022-10-31T10:41:34.951Z,101208.00
2022-10-31T10:45:00.502Z,101206.87
2022-10-31T10:48:15.504Z,101203.66
2022-10-31T10:51:46.342Z,101204.13
2022-10-31T10:54:47.676Z,101195.63
2022-10-31T10:58:07.681Z,101199.50
2022-10-31T11:01:16.918Z,101194.59
2022-10-31T11:04:35.086Z,101194.03
2022-10-31T11:07:41.204Z,101190.16
2022-10-31T11:10:43.088Z,101184.84
2022-10-31T11:13:50.439Z,101185.00
2022-10-31T11:17:10.048Z,101190.63
2022-10-31T11:20:17.885Z,101187.03
2022-10-31T11:23:22.940Z,101182.75
2022-10-31T11:26:24.811Z,101187.41
2022-10-31T11:29:27.042Z,101180.06
2022-10-31T11:32:30.752Z,101179.91
2022-10-31T11:35:32.751Z,101179.25
2022-10-31T11:38:44.537Z,101175.94
2022-10-31T11:41:47.526Z,101178.56
2022-10-31T11:44:51.186Z,101169.72
2022-10-31T11:47:59.770Z,101162.94
2022-10-31T11:51:01.833Z,101161.47
2022-10-31T11:54:05.704Z,101163.63
2022-10-31T11:57:32.757Z,101152.28
2022-10-31T12:00:39.502Z,101154.94
2022-10-31T12:03:56.346Z,101163.47
2022-10-31T12:06:58.531Z,101162.28
2022-10-31T12:10:00.480Z,101157.81
2022-10-31T12:13:31.257Z,101153.31
2022-10-31T12:17:18.058Z,101156.41
2022-10-31T12:20:41.222Z,101157.34
2022-10-31T12:23:55.329Z,101151.81
2022-10-31T12:27:25.877Z,101158.81
2022-10-31T12:31:05.054Z,101156.03
2022-10-31T12:34:25.272Z,101149.63
2022-10-31T12:37:51.379Z,101149.47
2022-10-31T12:41:21.431Z,101151.34
2022-10-31T12:44:37.681Z,101155.91
2022-10-31T12:48:08.896Z,101158.19
2022-10-31T12:51:28.387Z,101159.47
2022-10-31T12:55:04.353Z,101160.44
2022-10-31T12:58:18.422Z,101158.66
2022-10-31T13:01:29.120Z,101158.16
2022-10-31T13:04:53.506Z,101160.22
2022-10-31T13:08:06.266Z,101156.53
2022-10-31T13:11:11.308Z,101153.38
2022-10-31T13:14:36.346Z,101150.59
2022-10-31T13:17:46.717Z,101156.72
2022-10-31T13:20:54.726Z,101148.38
2022-10-31T13:24:02.811Z,101154.81
2022-10-31T13:27:14.391Z,101153.66
2022-10-31T13:30:22.168Z,101148.38
2022-10-31T13:33:40.145Z,101154.81
2022-10-31T13:36:46.556Z,101152.63
2022-10-31T13:40:15.354Z,101160.66
2022-10-31T13:43:36.170Z,101152.91
2022-10-31T13:46:40.587Z,101161.25
2022-10-31T13:49:43.067Z,101149.50
2022-10-31T13:53:10.244Z,101156.16
2022-10-31T13:56:17.801Z,101156.09
2022-10-31T13:59:23.819Z,101153.13
2022-10-31T14:02:35.338Z,101147.56
2022-10-31T14:05:37.727Z,101149.81
2022-10-31T14:08:48.048Z,101151.38
2022-10-31T14:11:51.592Z,101148.22
2022-10-31T14:14:58.195Z,101151.19
2022-10-31T14:18:03.322Z,101155.03
2022-10-31T14:21:27.777Z,101146.53
2022-10-31T14:24:40.792Z,101147.00
2022-10-31T14:27:47.779Z,101150.72
2022-10-31T14:30:58.839Z,101145.91
2022-10-31T14:34:02.697Z,101141.63
2022-10-31T14:37:22.940Z,101149.16
2022-10-31T14:40:36.722Z,101139.47
2022-10-31T14:43:56.783Z,101130.53
2022-10-31T14:47:04.178Z,101140.44
2022-10-31T14:50:14.496Z,101135.22
2022-10-31T14:53:21.943Z,101131.00
2022-10-31T14:56:26.495Z,101132.50
2022-10-31T14:59:34.354Z,101139.63
2022-10-31T15:02:59.800Z,101141.09
2022-10-31T15:06:10.675Z,101142.41
2022-10-31T15:09:22.939Z,101137.50
2022-10-31T15:12:40.097Z,101135.84
2022-10-31T15:15:42.087Z,101130.69
2022-10-31T15:19:07.178Z,101137.78
2022-10-31T15:22:15.288Z,101136.84
2022-10-31T15:25:27.371Z,101135.91
2022-10-31T15:28:29.366Z,101142.69
2022-10-31T15:31:32.204Z,101138.72
2022-10-31T15:34:43.439Z,101148.28
2022-10-31T15:37:45.347Z,101141.91
2022-10-31T15:40:55.503Z,101144.00
2022-10-31T15:44:03.571Z,101149.34
2022-10-31T15:47:16.904Z,101147.66
2022-10-31T15:50:28.725Z,101147.91
2022-10-31T15:53:37.605Z,101156.47
2022-10-31T15:56:39.250Z,101153.75
2022-10-31T15:59:46.214Z,101153.69
2022-10-31T16:02:47.961Z,101157.25
2022-10-31T16:05:55.512Z,101160.09
2022-10-31T16:08:57.306Z,101169.09
2022-10-31T16:12:00.469Z,101161.44
2022-10-31T16:15:02.885Z,101162.47
2022-10-31T16:18:06.683Z,101161.97
2022-10-31T16:21:09.929Z,101162.66
2022-10-31T16:24:18.787Z,101169.22
2022-10-31T16:27:30.090Z,101168.25
2022-10-31T16:30:44.009Z,101176.22
2022-10-31T16:33:48.632Z,101172.00
2022-10-31T16:36:51.545Z,101180.53
2022-10-31T16:39:53.200Z,101183.09
2022-10-31T16:42:59.458Z,101180.72
2022-10-31T16:46:01.697Z,101175.75
2022-10-31T16:49:03.710Z,101174.38
2022-10-31T16:52:06.107Z,101178.06
2022-10-31T16:55:12.275Z,101183.38
2022-10-31T16:58:36.034Z,101184.78
2022-10-31T17:01:38.093Z,101180.09
2022-10-31T17:04:41.181Z,101179.59
2022-10-31T17:07:43.481Z,101188.34
2022-10-31T17:10:48.078Z,101189.37
2022-10-31T17:13:50.189Z,101189.69
2022-10-31T17:16:52.133Z,101184.88
2022-10-31T17:19:54.018Z,101188.69
2022-10-31T17:22:57.173Z,101196.25
2022-10-31T17:26:00.302Z,101193.59
2022-10-31T17:29:03.730Z,101201.34
2022-10-31T17:32:05.915Z,101201.53
2022-10-31T17:35:09.651Z,101203.28
2022-10-31T17:38:12.604Z,101206.78
2022-10-31T17:41:14.964Z,101208.09
2022-10-31T17:44:18.604Z,101204.22
2022-10-31T17:47:20.490Z,101201.78
2022-10-31T17:50:25.657Z,101206.09
2022-10-31T17:53:32.330Z,101203.41
2022-10-31T17:56:34.232Z,101206.25
2022-10-31T17:59:36.197Z,101207.66
2022-10-31T18:02:38.185Z,101205.22
2022-10-31T18:05:51.129Z,101204.00
2022-10-31T18:09:08.091Z,101210.56
2022-10-31T18:12:10.075Z,101208.94
2022-10-31T18:15:12.210Z,101208.97
2022-10-31T18:18:15.252Z,101209.66
2022-10-31T18:21:18.582Z,101199.53
2022-10-31T18:24:21.226Z,101209.44
2022-10-31T18:27:23.074Z,101204.06
2022-10-31T18:30:24.988Z,101203.50
2022-10-31T18:33:29.081Z,101205.56
2022-10-31T18:36:31.784Z,101210.16
2022-10-31T18:39:33.865Z,101203.69
2022-10-31T18:42:38.523Z,101205.12
2022-10-31T18:45:47.159Z,101201.41
2022-10-31T18:48:51.247Z,101202.94
2022-10-31T18:51:54.434Z,101200.69
2022-10-31T18:54:56.787Z,101211.53
2022-10-31T18:57:58.727Z,101204.59
2022-10-31T19:01:08.791Z,101197.88
2022-10-31T19:04:11.244Z,101204.16
2022-10-31T19:07:13.589Z,101212.22
2022-10-31T19:10:16.193Z,101212.87
2022-10-31T19:13:18.522Z,101205.69
2022-10-31T19:16:22.201Z,101207.75
2022-10-31T19:19:24.653Z,101204.38
2022-10-31T19:22:27.441Z,101205.97
2022-10-31T19:25:30.494Z,101202.19
2022-10-31T19:28:35.040Z,101201.19
2022-10-31T19:31:37.677Z,101199.31
2022-10-31T19:34:39.918Z,101203.78
2022-10-31T19:37:42.909Z,101189.63
2022-10-31T19:40:45.648Z,101198.41
2022-10-31T19:43:48.861Z,101201.09
2022-10-31T19:46:53.386Z,101202.94
2022-10-31T19:49:56.234Z,101200.63
2022-10-31T19:52:58.902Z,101200.84
2022-10-31T19:56:02.252Z,101201.50
2022-10-31T19:59:05.089Z,101208.78
2022-10-31T20:02:19.850Z,101204.44
2022-10-31T20:05:21.790Z,101205.41
2022-10-31T20:08:25.317Z,101204.44
2022-10-31T20:11:29.267Z,101209.47
2022-10-31T20:14:31.884Z,101209.72
2022-10-31T20:17:34.312Z,101203.22
2022-10-31T20:20:36.917Z,101201.25
2022-10-31T20:23:40.876Z,101206.00
2022-10-31T20:26:42.926Z,101203.34
2022-10-31T20:29:45.007Z,101212.66
2022-10-31T20:32:50.036Z,101203.41
2022-10-31T20:35:52.723Z,101205.56
2022-10-31T20:38:55.040Z,101203.09
2022-10-31T20:41:57.607Z,101204.03
2022-10-31T20:45:02.401Z,101209.87
2022-10-31T20:48:04.968Z,101207.66
2022-10-31T20:54:23.899Z,101213.28
2022-10-31T20:57:26.210Z,101211.19
2022-10-31T21:00:28.540Z,101211.41
2022-10-31T21:03:30.658Z,101205.19
2022-10-31T21:06:32.889Z,101204.53
2022-10-31T21:09:34.740Z,101208.03
2022-10-31T21:12:36.681Z,101207.00
2022-10-31T21:15:38.528Z,101203.75
2022-10-31T21:18:42.494Z,101196.88
2022-10-31T21:21:44.426Z,101206.41
2022-10-31T21:24:46.494Z,101207.13
2022-10-31T21:27:48.676Z,101200.53
2022-10-31T21:30:51.978Z,101204.13
2022-10-31T21:33:54.559Z,101199.03
2022-10-31T21:36:56.359Z,101203.94
2022-10-31T21:39:58.263Z,101204.03
2022-10-31T21:43:00.460Z,101203.91
2022-10-31T21:46:07.947Z,101195.59
2022-10-31T21:49:10.415Z,101198.53
2022-10-31T21:52:12.392Z,101196.56
2022-10-31T21:55:14.121Z,101194.31
2022-10-31T21:58:15.910Z,101190.59
2022-10-31T22:01:18.592Z,101189.03
2022-10-31T22:04:20.544Z,101193.56
2022-10-31T22:07:22.090Z,101189.03
2022-10-31T22:10:23.869Z,101193.56
2022-10-31T22:13:25.532Z,101190.69
2022-10-31T22:16:29.478Z,101189.03
2022-10-31T22:19:31.337Z,101183.19
2022-10-31T22:22:33.145Z,101188.25
2022-10-31T22:25:37.526Z,101183.19
2022-10-31T22:28:39.202Z,101185.78
2022-10-31T22:31:44.055Z,101178.66
2022-10-31T22:34:45.819Z,101181.06
2022-10-31T22:37:47.376Z,101181.38
2022-10-31T22:40:48.933Z,101173.19
2022-10-31T22:43:51.543Z,101174.75
2022-10-31T22:46:53.412Z,101168.13
2022-10-31T22:49:55.386Z,101177.19
2022-10-31T22:52:57.156Z,101169.44
2022-10-31T22:55:58.711Z,101180.75
2022-10-31T22:59:01.390Z,101178.94
2022-10-31T23:02:06.039Z,101170.69
2022-10-31T23:05:10.062Z,101175.03
2022-10-31T23:08:11.655Z,101158.00
2022-10-31T23:11:33.827Z,101161.47
2022-10-31T23:14:35.666Z,101157.31
2022-10-31T23:17:39.443Z,101163.91
2022-10-31T23:23:47.807Z,101158.94
2022-10-31T23:27:09.589Z,101160.84
2022-10-31T23:30:11.504Z,101158.47
2022-10-31T23:33:13.409Z,101168.53
2022-10-31T23:36:15.441Z,101166.19
2022-10-31T23:39:20.012Z,101179.00
2022-10-31T23:42:25.670Z,101178.09
2022-10-31T23:45:28.617Z,101168.97
2022-10-31T23:48:30.686Z,101154.91
2022-10-31T23:51:32.500Z,101155.31
2022-10-31T23:54:34.621Z,101152.03
2022-10-31T23:57:36.430Z,101154.25
